sensor_id;sensor_type;location;lat;lon;timestamp;P1;durP1;ratioP1;P2;durP2;ratioP2
37237;SDS011;23129;49.662;8.448;2023-03-29T00:00:07;2.28;;;1.42;;
37237;SDS011;23129;49.662;8.448;2023-03-29T00:02:39;3.70;;;1.77;;
37237;SDS011;23129;49.662;8.448;2023-03-29T00:05:09;2.55;;;1.85;;
37237;SDS011;23129;49.662;8.448;2023-03-29T00:07:38;3.60;;;1.30;;
37237;SDS011;23129;49.662;8.448;2023-03-29T00:10:08;6.03;;;1.88;;
37237;SDS011;23129;49.662;8.448;2023-03-29T00:12:39;1.65;;;1.55;;
37237;SDS011;23129;49.662;8.448;2023-03-29T00:15:09;1.75;;;0.90;;
37237;SDS011;23129;49.662;8.448;2023-03-29T00:17:38;1.35;;;1.10;;
37237;SDS011;23129;49.662;8.448;2023-03-29T00:20:07;1.23;;;1.13;;
37237;SDS011;23129;49.662;8.448;2023-03-29T00:22:36;6.10;;;1.90;;
37237;SDS011;23129;49.662;8.448;2023-03-29T00:25:07;2.00;;;1.23;;
37237;SDS011;23129;49.662;8.448;2023-03-29T00:27:36;2.92;;;1.30;;
37237;SDS011;23129;49.662;8.448;2023-03-29T00:30:06;1.80;;;1.55;;
37237;SDS011;23129;49.662;8.448;2023-03-29T00:32:37;2.45;;;1.48;;
37237;SDS011;23129;49.662;8.448;2023-03-29T00:35:06;3.15;;;1.70;;
37237;SDS011;23129;49.662;8.448;2023-03-29T00:37:35;1.33;;;1.23;;
37237;SDS011;23129;49.662;8.448;2023-03-29T00:40:05;2.13;;;1.77;;
37237;SDS011;23129;49.662;8.448;2023-03-29T00:42:38;2.72;;;1.60;;
37237;SDS011;23129;49.662;8.448;2023-03-29T00:45:17;2.70;;;1.33;;
37237;SDS011;23129;49.662;8.448;2023-03-29T00:47:49;4.55;;;1.50;;
37237;SDS011;23129;49.662;8.448;2023-03-29T00:50:23;1.73;;;1.42;;
37237;SDS011;23129;49.662;8.448;2023-03-29T00:52:57;1.33;;;1.23;;
37237;SDS011;23129;49.662;8.448;2023-03-29T00:55:31;1.95;;;1.77;;
37237;SDS011;23129;49.662;8.448;2023-03-29T00:58:05;1.83;;;1.73;;
37237;SDS011;23129;49.662;8.448;2023-03-29T01:00:43;2.90;;;1.45;;
37237;SDS011;23129;49.662;8.448;2023-03-29T01:03:18;2.25;;;1.35;;
37237;SDS011;23129;49.662;8.448;2023-03-29T01:05:53;1.98;;;1.80;;
37237;SDS011;23129;49.662;8.448;2023-03-29T01:08:27;1.65;;;1.55;;
37237;SDS011;23129;49.662;8.448;2023-03-29T01:11:02;2.80;;;1.90;;
37237;SDS011;23129;49.662;8.448;2023-03-29T01:13:38;2.10;;;2.00;;
37237;SDS011;23129;49.662;8.448;2023-03-29T01:16:12;2.03;;;1.85;;
37237;SDS011;23129;49.662;8.448;2023-03-29T01:18:45;3.20;;;1.70;;
37237;SDS011;23129;49.662;8.448;2023-03-29T01:21:19;2.50;;;1.55;;
37237;SDS011;23129;49.662;8.448;2023-03-29T01:24:06;2.15;;;1.88;;
37237;SDS011;23129;49.662;8.448;2023-03-29T01:27:04;1.80;;;1.45;;
37237;SDS011;23129;49.662;8.448;2023-03-29T01:29:44;2.90;;;1.65;;
37237;SDS011;23129;49.662;8.448;2023-03-29T01:32:15;2.03;;;1.48;;
37237;SDS011;23129;49.662;8.448;2023-03-29T01:34:49;3.80;;;1.85;;
37237;SDS011;23129;49.662;8.448;2023-03-29T01:37:25;2.13;;;1.63;;
37237;SDS011;23129;49.662;8.448;2023-03-29T01:39:58;2.15;;;1.73;;
37237;SDS011;23129;49.662;8.448;2023-03-29T01:42:38;2.90;;;1.60;;
37237;SDS011;23129;49.662;8.448;2023-03-29T01:45:42;1.75;;;1.55;;
37237;SDS011;23129;49.662;8.448;2023-03-29T01:48:18;3.33;;;1.60;;
37237;SDS011;23129;49.662;8.448;2023-03-29T01:50:54;3.58;;;1.77;;
37237;SDS011;23129;49.662;8.448;2023-03-29T01:53:29;5.72;;;1.75;;
37237;SDS011;23129;49.662;8.448;2023-03-29T01:56:06;1.58;;;1.48;;
37237;SDS011;23129;49.662;8.448;2023-03-29T01:58:38;5.20;;;1.80;;
37237;SDS011;23129;49.662;8.448;2023-03-29T02:01:12;3.85;;;1.88;;
37237;SDS011;23129;49.662;8.448;2023-03-29T02:03:47;1.90;;;1.80;;
37237;SDS011;23129;49.662;8.448;2023-03-29T02:06:21;3.75;;;2.15;;
37237;SDS011;23129;49.662;8.448;2023-03-29T02:08:54;2.50;;;2.30;;
37237;SDS011;23129;49.662;8.448;2023-03-29T02:11:23;13.20;;;3.75;;
37237;SDS011;23129;49.662;8.448;2023-03-29T02:13:54;4.65;;;2.28;;
37237;SDS011;23129;49.662;8.448;2023-03-29T02:16:24;4.80;;;2.40;;
37237;SDS011;23129;49.662;8.448;2023-03-29T02:18:53;6.18;;;2.38;;
37237;SDS011;23129;49.662;8.448;2023-03-29T02:21:24;7.57;;;2.33;;
37237;SDS011;23129;49.662;8.448;2023-03-29T02:23:57;3.72;;;2.13;;
37237;SDS011;23129;49.662;8.448;2023-03-29T02:26:28;4.95;;;2.50;;
37237;SDS011;23129;49.662;8.448;2023-03-29T02:28:57;6.60;;;2.60;;
37237;SDS011;23129;49.662;8.448;2023-03-29T02:31:28;6.22;;;2.67;;
37237;SDS011;23129;49.662;8.448;2023-03-29T02:34:03;2.42;;;2.20;;
37237;SDS011;23129;49.662;8.448;2023-03-29T02:36:37;3.00;;;2.65;;
37237;SDS011;23129;49.662;8.448;2023-03-29T02:39:10;4.20;;;2.53;;
37237;SDS011;23129;49.662;8.448;2023-03-29T02:41:41;5.28;;;2.55;;
37237;SDS011;23129;49.662;8.448;2023-03-29T02:44:13;5.30;;;2.75;;
37237;SDS011;23129;49.662;8.448;2023-03-29T02:46:49;6.63;;;3.03;;
37237;SDS011;23129;49.662;8.448;2023-03-29T02:49:24;8.20;;;3.22;;
37237;SDS011;23129;49.662;8.448;2023-03-29T02:51:54;3.60;;;2.30;;
37237;SDS011;23129;49.662;8.448;2023-03-29T02:54:28;3.95;;;2.38;;
37237;SDS011;23129;49.662;8.448;2023-03-29T02:56:58;3.17;;;2.47;;
37237;SDS011;23129;49.662;8.448;2023-03-29T02:59:31;4.55;;;2.63;;
37237;SDS011;23129;49.662;8.448;2023-03-29T03:02:02;7.53;;;3.03;;
37237;SDS011;23129;49.662;8.448;2023-03-29T03:04:31;3.88;;;2.90;;
37237;SDS011;23129;49.662;8.448;2023-03-29T03:07:01;9.73;;;2.75;;
37237;SDS011;23129;49.662;8.448;2023-03-29T03:09:30;4.03;;;2.17;;
37237;SDS011;23129;49.662;8.448;2023-03-29T03:11:59;4.18;;;2.42;;
37237;SDS011;23129;49.662;8.448;2023-03-29T03:14:28;3.45;;;2.45;;
37237;SDS011;23129;49.662;8.448;2023-03-29T03:16:58;3.58;;;2.55;;
37237;SDS011;23129;49.662;8.448;2023-03-29T03:19:32;5.32;;;2.15;;
37237;SDS011;23129;49.662;8.448;2023-03-29T03:22:00;4.38;;;2.33;;
37237;SDS011;23129;49.662;8.448;2023-03-29T03:24:31;2.50;;;2.13;;
37237;SDS011;23129;49.662;8.448;2023-03-29T03:27:00;2.17;;;1.73;;
37237;SDS011;23129;49.662;8.448;2023-03-29T03:29:30;6.35;;;2.50;;
37237;SDS011;23129;49.662;8.448;2023-03-29T03:32:21;5.20;;;2.85;;
37237;SDS011;23129;49.662;8.448;2023-03-29T03:35:13;7.20;;;3.00;;
37237;SDS011;23129;49.662;8.448;2023-03-29T03:37:42;3.45;;;2.55;;
37237;SDS011;23129;49.662;8.448;2023-03-29T03:40:10;8.10;;;2.63;;
37237;SDS011;23129;49.662;8.448;2023-03-29T03:42:39;5.50;;;3.30;;
37237;SDS011;23129;49.662;8.448;2023-03-29T03:45:08;3.05;;;1.88;;
37237;SDS011;23129;49.662;8.448;2023-03-29T03:47:59;4.82;;;3.13;;
37237;SDS011;23129;49.662;8.448;2023-03-29T03:50:54;12.15;;;2.70;;
37237;SDS011;23129;49.662;8.448;2023-03-29T03:53:29;6.32;;;2.63;;
37237;SDS011;23129;49.662;8.448;2023-03-29T03:56:25;3.42;;;2.55;;
37237;SDS011;23129;49.662;8.448;2023-03-29T03:59:16;11.48;;;3.15;;
37237;SDS011;23129;49.662;8.448;2023-03-29T04:01:57;4.05;;;2.58;;
37237;SDS011;23129;49.662;8.448;2023-03-29T04:04:27;6.75;;;3.03;;
37237;SDS011;23129;49.662;8.448;2023-03-29T04:07:10;2.70;;;2.45;;
37237;SDS011;23129;49.662;8.448;2023-03-29T04:09:58;3.78;;;2.33;;
37237;SDS011;23129;49.662;8.448;2023-03-29T04:12:38;3.10;;;2.38;;
37237;SDS011;23129;49.662;8.448;2023-03-29T04:15:07;3.20;;;2.30;;
37237;SDS011;23129;49.662;8.448;2023-03-29T04:17:42;6.05;;;2.53;;
37237;SDS011;23129;49.662;8.448;2023-03-29T04:20:17;2.97;;;2.17;;
37237;SDS011;23129;49.662;8.448;2023-03-29T04:22:48;3.75;;;2.28;;
37237;SDS011;23129;49.662;8.448;2023-03-29T04:25:17;3.05;;;1.88;;
37237;SDS011;23129;49.662;8.448;2023-03-29T04:27:46;5.18;;;3.33;;
37237;SDS011;23129;49.662;8.448;2023-03-29T04:30:44;7.78;;;4.47;;
37237;SDS011;23129;49.662;8.448;2023-03-29T04:33:39;4.32;;;3.25;;
37237;SDS011;23129;49.662;8.448;2023-03-29T04:36:08;5.88;;;2.17;;
37237;SDS011;23129;49.662;8.448;2023-03-29T04:38:40;3.05;;;2.17;;
37237;SDS011;23129;49.662;8.448;2023-03-29T04:43:55;2.90;;;2.03;;
37237;SDS011;23129;49.662;8.448;2023-03-29T04:46:25;5.32;;;2.65;;
37237;SDS011;23129;49.662;8.448;2023-03-29T04:49:12;2.30;;;2.10;;
37237;SDS011;23129;49.662;8.448;2023-03-29T04:51:45;2.72;;;2.15;;
37237;SDS011;23129;49.662;8.448;2023-03-29T04:54:17;2.95;;;2.30;;
37237;SDS011;23129;49.662;8.448;2023-03-29T04:57:04;2.13;;;1.83;;
37237;SDS011;23129;49.662;8.448;2023-03-29T05:00:07;4.15;;;2.15;;
37237;SDS011;23129;49.662;8.448;2023-03-29T05:03:15;1.80;;;1.70;;
37237;SDS011;23129;49.662;8.448;2023-03-29T05:06:00;3.78;;;2.30;;
37237;SDS011;23129;49.662;8.448;2023-03-29T05:08:33;2.38;;;2.17;;
37237;SDS011;23129;49.662;8.448;2023-03-29T05:11:28;4.30;;;2.20;;
37237;SDS011;23129;49.662;8.448;2023-03-29T05:13:57;2.67;;;2.47;;
37237;SDS011;23129;49.662;8.448;2023-03-29T05:16:32;4.63;;;2.55;;
37237;SDS011;23129;49.662;8.448;2023-03-29T05:19:01;3.05;;;1.88;;
37237;SDS011;23129;49.662;8.448;2023-03-29T05:21:33;9.10;;;2.65;;
37237;SDS011;23129;49.662;8.448;2023-03-29T05:24:05;5.43;;;2.50;;
37237;SDS011;23129;49.662;8.448;2023-03-29T05:26:57;3.33;;;2.03;;
37237;SDS011;23129;49.662;8.448;2023-03-29T05:29:29;6.35;;;2.03;;
37237;SDS011;23129;49.662;8.448;2023-03-29T05:32:17;3.95;;;2.28;;
37237;SDS011;23129;49.662;8.448;2023-03-29T05:34:46;2.85;;;2.60;;
37237;SDS011;23129;49.662;8.448;2023-03-29T05:37:14;4.15;;;2.20;;
37237;SDS011;23129;49.662;8.448;2023-03-29T05:39:56;5.00;;;2.30;;
37237;SDS011;23129;49.662;8.448;2023-03-29T05:42:37;3.30;;;2.45;;
37237;SDS011;23129;49.662;8.448;2023-03-29T05:45:07;6.93;;;2.60;;
37237;SDS011;23129;49.662;8.448;2023-03-29T05:47:38;2.10;;;1.92;;
37237;SDS011;23129;49.662;8.448;2023-03-29T05:50:07;3.65;;;2.85;;
37237;SDS011;23129;49.662;8.448;2023-03-29T05:52:37;2.28;;;1.98;;
37237;SDS011;23129;49.662;8.448;2023-03-29T05:55:06;3.60;;;2.40;;
37237;SDS011;23129;49.662;8.448;2023-03-29T05:57:37;3.35;;;2.63;;
37237;SDS011;23129;49.662;8.448;2023-03-29T06:00:06;4.13;;;2.83;;
37237;SDS011;23129;49.662;8.448;2023-03-29T06:02:45;6.25;;;2.40;;
37237;SDS011;23129;49.662;8.448;2023-03-29T06:05:14;4.03;;;2.67;;
37237;SDS011;23129;49.662;8.448;2023-03-29T06:07:56;2.35;;;2.15;;
37237;SDS011;23129;49.662;8.448;2023-03-29T06:10:44;5.28;;;2.60;;
37237;SDS011;23129;49.662;8.448;2023-03-29T06:13:36;4.95;;;3.22;;
37237;SDS011;23129;49.662;8.448;2023-03-29T06:16:05;4.80;;;2.35;;
37237;SDS011;23129;49.662;8.448;2023-03-29T06:18:35;3.65;;;2.25;;
37237;SDS011;23129;49.662;8.448;2023-03-29T06:21:06;4.32;;;2.42;;
37237;SDS011;23129;49.662;8.448;2023-03-29T06:23:36;3.85;;;2.72;;
37237;SDS011;23129;49.662;8.448;2023-03-29T06:26:05;4.75;;;2.83;;
37237;SDS011;23129;49.662;8.448;2023-03-29T06:28:36;3.92;;;2.58;;
37237;SDS011;23129;49.662;8.448;2023-03-29T06:31:05;9.00;;;2.90;;
37237;SDS011;23129;49.662;8.448;2023-03-29T06:33:38;3.20;;;2.50;;
37237;SDS011;23129;49.662;8.448;2023-03-29T06:39:13;5.50;;;2.22;;
37237;SDS011;23129;49.662;8.448;2023-03-29T06:42:07;3.07;;;2.77;;
37237;SDS011;23129;49.662;8.448;2023-03-29T06:45:21;3.58;;;2.90;;
37237;SDS011;23129;49.662;8.448;2023-03-29T06:47:52;6.25;;;2.88;;
37237;SDS011;23129;49.662;8.448;2023-03-29T06:50:22;3.53;;;2.58;;
37237;SDS011;23129;49.662;8.448;2023-03-29T06:52:57;6.22;;;2.95;;
37237;SDS011;23129;49.662;8.448;2023-03-29T06:55:26;2.53;;;2.30;;
37237;SDS011;23129;49.662;8.448;2023-03-29T06:57:55;3.33;;;2.92;;
37237;SDS011;23129;49.662;8.448;2023-03-29T07:00:29;5.63;;;2.75;;
37237;SDS011;23129;49.662;8.448;2023-03-29T07:03:20;2.75;;;2.50;;
37237;SDS011;23129;49.662;8.448;2023-03-29T07:05:52;4.20;;;2.65;;
37237;SDS011;23129;49.662;8.448;2023-03-29T07:08:30;10.55;;;3.17;;
37237;SDS011;23129;49.662;8.448;2023-03-29T07:13:36;2.33;;;1.92;;
37237;SDS011;23129;49.662;8.448;2023-03-29T07:16:09;2.20;;;2.00;;
37237;SDS011;23129;49.662;8.448;2023-03-29T07:19:14;4.18;;;2.72;;
37237;SDS011;23129;49.662;8.448;2023-03-29T07:21:49;3.33;;;2.40;;
37237;SDS011;23129;49.662;8.448;2023-03-29T07:24:22;5.60;;;2.30;;
37237;SDS011;23129;49.662;8.448;2023-03-29T07:26:50;7.85;;;2.42;;
37237;SDS011;23129;49.662;8.448;2023-03-29T07:29:31;4.63;;;2.58;;
37237;SDS011;23129;49.662;8.448;2023-03-29T07:32:00;5.82;;;2.67;;
37237;SDS011;23129;49.662;8.448;2023-03-29T07:34:53;2.90;;;2.05;;
37237;SDS011;23129;49.662;8.448;2023-03-29T07:37:34;2.53;;;2.30;;
37237;SDS011;23129;49.662;8.448;2023-03-29T07:40:06;9.77;;;2.58;;
37237;SDS011;23129;49.662;8.448;2023-03-29T07:43:00;5.43;;;2.20;;
37237;SDS011;23129;49.662;8.448;2023-03-29T07:45:34;3.10;;;1.95;;
37237;SDS011;23129;49.662;8.448;2023-03-29T07:48:08;4.53;;;1.98;;
37237;SDS011;23129;49.662;8.448;2023-03-29T07:50:57;5.40;;;2.30;;
37237;SDS011;23129;49.662;8.448;2023-03-29T07:53:31;5.55;;;2.08;;
37237;SDS011;23129;49.662;8.448;2023-03-29T07:56:03;3.45;;;2.30;;
37237;SDS011;23129;49.662;8.448;2023-03-29T07:58:50;4.93;;;2.28;;
37237;SDS011;23129;49.662;8.448;2023-03-29T08:01:19;3.95;;;2.42;;
37237;SDS011;23129;49.662;8.448;2023-03-29T08:04:16;3.50;;;1.98;;
37237;SDS011;23129;49.662;8.448;2023-03-29T08:07:03;5.35;;;2.05;;
37237;SDS011;23129;49.662;8.448;2023-03-29T08:09:53;7.95;;;2.03;;
37237;SDS011;23129;49.662;8.448;2023-03-29T08:12:36;4.82;;;2.08;;
37237;SDS011;23129;49.662;8.448;2023-03-29T08:15:08;6.28;;;2.97;;
37237;SDS011;23129;49.662;8.448;2023-03-29T08:17:38;1.95;;;1.67;;
37237;SDS011;23129;49.662;8.448;2023-03-29T08:20:09;4.25;;;2.92;;
37237;SDS011;23129;49.662;8.448;2023-03-29T08:22:43;2.78;;;1.75;;
37237;SDS011;23129;49.662;8.448;2023-03-29T08:25:32;6.15;;;2.10;;
37237;SDS011;23129;49.662;8.448;2023-03-29T08:28:02;5.35;;;2.45;;
37237;SDS011;23129;49.662;8.448;2023-03-29T08:30:42;3.85;;;1.88;;
37237;SDS011;23129;49.662;8.448;2023-03-29T08:33:11;4.78;;;2.45;;
37237;SDS011;23129;49.662;8.448;2023-03-29T08:35:42;3.63;;;2.17;;
37237;SDS011;23129;49.662;8.448;2023-03-29T08:38:19;4.45;;;2.00;;
37237;SDS011;23129;49.662;8.448;2023-03-29T08:40:49;2.00;;;1.42;;
37237;SDS011;23129;49.662;8.448;2023-03-29T08:43:24;2.65;;;2.38;;
37237;SDS011;23129;49.662;8.448;2023-03-29T08:46:22;2.28;;;2.05;;
37237;SDS011;23129;49.662;8.448;2023-03-29T08:49:15;5.53;;;2.15;;
37237;SDS011;23129;49.662;8.448;2023-03-29T08:51:48;7.93;;;1.92;;
37237;SDS011;23129;49.662;8.448;2023-03-29T08:54:22;4.03;;;2.30;;
37237;SDS011;23129;49.662;8.448;2023-03-29T08:57:19;3.28;;;2.08;;
37237;SDS011;23129;49.662;8.448;2023-03-29T08:59:57;4.55;;;2.17;;
37237;SDS011;23129;49.662;8.448;2023-03-29T09:02:32;8.27;;;2.17;;
37237;SDS011;23129;49.662;8.448;2023-03-29T09:05:07;7.43;;;2.15;;
37237;SDS011;23129;49.662;8.448;2023-03-29T09:08:02;4.40;;;1.83;;
37237;SDS011;23129;49.662;8.448;2023-03-29T09:10:38;2.88;;;2.42;;
37237;SDS011;23129;49.662;8.448;2023-03-29T09:13:16;7.70;;;2.30;;
37237;SDS011;23129;49.662;8.448;2023-03-29T09:15:59;7.03;;;2.17;;
37237;SDS011;23129;49.662;8.448;2023-03-29T09:18:43;4.72;;;1.90;;
37237;SDS011;23129;49.662;8.448;2023-03-29T09:21:26;5.07;;;2.30;;
37237;SDS011;23129;49.662;8.448;2023-03-29T09:27:19;3.55;;;2.17;;
37237;SDS011;23129;49.662;8.448;2023-03-29T09:30:15;10.18;;;2.72;;
37237;SDS011;23129;49.662;8.448;2023-03-29T09:33:04;4.53;;;2.13;;
37237;SDS011;23129;49.662;8.448;2023-03-29T09:36:04;10.55;;;2.88;;
37237;SDS011;23129;49.662;8.448;2023-03-29T09:38:39;4.07;;;1.55;;
37237;SDS011;23129;49.662;8.448;2023-03-29T09:41:17;7.07;;;2.35;;
37237;SDS011;23129;49.662;8.448;2023-03-29T09:43:52;3.55;;;2.65;;
37237;SDS011;23129;49.662;8.448;2023-03-29T09:46:28;5.03;;;1.88;;
37237;SDS011;23129;49.662;8.448;2023-03-29T09:49:08;2.97;;;1.98;;
37237;SDS011;23129;49.662;8.448;2023-03-29T09:51:43;4.60;;;2.33;;
37237;SDS011;23129;49.662;8.448;2023-03-29T09:54:17;4.88;;;2.10;;
37237;SDS011;23129;49.662;8.448;2023-03-29T09:57:22;3.85;;;2.20;;
37237;SDS011;23129;49.662;8.448;2023-03-29T09:59:52;3.38;;;1.60;;
37237;SDS011;23129;49.662;8.448;2023-03-29T10:02:21;4.45;;;2.10;;
37237;SDS011;23129;49.662;8.448;2023-03-29T10:04:53;2.10;;;1.67;;
37237;SDS011;23129;49.662;8.448;2023-03-29T10:07:31;5.87;;;1.93;;
37237;SDS011;23129;49.662;8.448;2023-03-29T10:10:13;3.70;;;2.10;;
37237;SDS011;23129;49.662;8.448;2023-03-29T10:12:51;2.20;;;1.45;;
37237;SDS011;23129;49.662;8.448;2023-03-29T10:15:25;1.92;;;1.70;;
37237;SDS011;23129;49.662;8.448;2023-03-29T10:17:56;2.88;;;1.85;;
37237;SDS011;23129;49.662;8.448;2023-03-29T10:20:28;1.90;;;1.30;;
37237;SDS011;23129;49.662;8.448;2023-03-29T10:22:57;4.70;;;1.25;;
37237;SDS011;23129;49.662;8.448;2023-03-29T10:25:27;3.63;;;1.70;;
37237;SDS011;23129;49.662;8.448;2023-03-29T10:28:03;8.80;;;2.35;;
37237;SDS011;23129;49.662;8.448;2023-03-29T10:30:34;2.28;;;1.55;;
37237;SDS011;23129;49.662;8.448;2023-03-29T10:33:05;3.97;;;1.85;;
37237;SDS011;23129;49.662;8.448;2023-03-29T10:35:43;3.53;;;2.08;;
37237;SDS011;23129;49.662;8.448;2023-03-29T10:38:15;3.17;;;2.28;;
37237;SDS011;23129;49.662;8.448;2023-03-29T10:40:47;5.20;;;2.40;;
37237;SDS011;23129;49.662;8.448;2023-03-29T10:43:21;9.68;;;2.78;;
37237;SDS011;23129;49.662;8.448;2023-03-29T10:48:23;4.40;;;2.00;;
37237;SDS011;23129;49.662;8.448;2023-03-29T10:50:56;7.35;;;2.40;;
37237;SDS011;23129;49.662;8.448;2023-03-29T10:53:28;6.55;;;2.22;;
37237;SDS011;23129;49.662;8.448;2023-03-29T10:56:02;6.82;;;2.65;;
37237;SDS011;23129;49.662;8.448;2023-03-29T10:58:54;5.40;;;2.53;;
37237;SDS011;23129;49.662;8.448;2023-03-29T11:01:43;11.10;;;2.53;;
37237;SDS011;23129;49.662;8.448;2023-03-29T11:04:24;4.07;;;2.88;;
37237;SDS011;23129;49.662;8.448;2023-03-29T11:07:11;5.50;;;2.08;;
37237;SDS011;23129;49.662;8.448;2023-03-29T11:09:57;4.65;;;2.03;;
37237;SDS011;23129;49.662;8.448;2023-03-29T11:12:39;4.72;;;2.75;;
37237;SDS011;23129;49.662;8.448;2023-03-29T11:15:21;8.23;;;2.50;;
37237;SDS011;23129;49.662;8.448;2023-03-29T11:18:19;4.55;;;2.00;;
37237;SDS011;23129;49.662;8.448;2023-03-29T11:21:07;5.30;;;2.55;;
37237;SDS011;23129;49.662;8.448;2023-03-29T11:23:47;5.10;;;2.58;;
37237;SDS011;23129;49.662;8.448;2023-03-29T11:26:27;2.53;;;1.98;;
37237;SDS011;23129;49.662;8.448;2023-03-29T11:29:09;2.42;;;1.73;;
37237;SDS011;23129;49.662;8.448;2023-03-29T11:31:51;4.60;;;1.80;;
37237;SDS011;23129;49.662;8.448;2023-03-29T11:34:32;4.40;;;2.17;;
37237;SDS011;23129;49.662;8.448;2023-03-29T11:37:12;14.18;;;2.50;;
37237;SDS011;23129;49.662;8.448;2023-03-29T11:39:51;4.60;;;2.35;;
37237;SDS011;23129;49.662;8.448;2023-03-29T11:42:59;5.10;;;2.78;;
37237;SDS011;23129;49.662;8.448;2023-03-29T11:45:52;4.45;;;2.30;;
37237;SDS011;23129;49.662;8.448;2023-03-29T11:48:30;7.68;;;2.53;;
37237;SDS011;23129;49.662;8.448;2023-03-29T11:51:21;9.52;;;2.53;;
37237;SDS011;23129;49.662;8.448;2023-03-29T11:54:15;4.70;;;2.10;;
37237;SDS011;23129;49.662;8.448;2023-03-29T11:56:53;6.07;;;2.60;;
37237;SDS011;23129;49.662;8.448;2023-03-29T11:59:27;4.03;;;2.03;;
37237;SDS011;23129;49.662;8.448;2023-03-29T12:02:01;5.32;;;2.03;;
37237;SDS011;23129;49.662;8.448;2023-03-29T12:04:41;7.90;;;2.92;;
37237;SDS011;23129;49.662;8.448;2023-03-29T12:07:15;7.70;;;2.60;;
37237;SDS011;23129;49.662;8.448;2023-03-29T12:09:51;6.60;;;2.38;;
37237;SDS011;23129;49.662;8.448;2023-03-29T12:12:44;4.53;;;2.40;;
37237;SDS011;23129;49.662;8.448;2023-03-29T12:15:40;4.60;;;1.90;;
37237;SDS011;23129;49.662;8.448;2023-03-29T12:18:16;4.78;;;2.40;;
37237;SDS011;23129;49.662;8.448;2023-03-29T12:20:53;2.13;;;1.92;;
37237;SDS011;23129;49.662;8.448;2023-03-29T12:23:47;4.72;;;2.03;;
37237;SDS011;23129;49.662;8.448;2023-03-29T12:26:44;5.18;;;1.80;;
37237;SDS011;23129;49.662;8.448;2023-03-29T12:29:52;3.22;;;1.92;;
37237;SDS011;23129;49.662;8.448;2023-03-29T12:32:57;4.10;;;1.90;;
37237;SDS011;23129;49.662;8.448;2023-03-29T12:36:19;4.82;;;2.38;;
37237;SDS011;23129;49.662;8.448;2023-03-29T12:39:40;4.57;;;1.92;;
37237;SDS011;23129;49.662;8.448;2023-03-29T12:42:27;7.78;;;2.17;;
37237;SDS011;23129;49.662;8.448;2023-03-29T12:45:28;6.65;;;2.30;;
37237;SDS011;23129;49.662;8.448;2023-03-29T12:47:59;5.38;;;2.20;;
37237;SDS011;23129;49.662;8.448;2023-03-29T12:50:31;4.30;;;2.38;;
37237;SDS011;23129;49.662;8.448;2023-03-29T12:53:04;2.60;;;2.15;;
37237;SDS011;23129;49.662;8.448;2023-03-29T12:58:40;4.88;;;2.35;;
37237;SDS011;23129;49.662;8.448;2023-03-29T13:01:22;2.63;;;1.88;;
37237;SDS011;23129;49.662;8.448;2023-03-29T13:03:56;5.13;;;2.33;;
37237;SDS011;23129;49.662;8.448;2023-03-29T13:06:57;5.53;;;2.17;;
37237;SDS011;23129;49.662;8.448;2023-03-29T13:09:46;4.03;;;2.38;;
37237;SDS011;23129;49.662;8.448;2023-03-29T13:12:21;3.22;;;2.05;;
37237;SDS011;23129;49.662;8.448;2023-03-29T13:14:53;2.78;;;2.00;;
37237;SDS011;23129;49.662;8.448;2023-03-29T13:17:26;5.90;;;2.45;;
37237;SDS011;23129;49.662;8.448;2023-03-29T13:20:15;3.35;;;2.30;;
37237;SDS011;23129;49.662;8.448;2023-03-29T13:23:03;4.82;;;2.10;;
37237;SDS011;23129;49.662;8.448;2023-03-29T13:25:59;6.35;;;2.20;;
37237;SDS011;23129;49.662;8.448;2023-03-29T13:28:53;3.92;;;2.13;;
37237;SDS011;23129;49.662;8.448;2023-03-29T13:31:41;7.25;;;2.15;;
37237;SDS011;23129;49.662;8.448;2023-03-29T13:34:20;4.40;;;1.42;;
37237;SDS011;23129;49.662;8.448;2023-03-29T13:39:46;3.03;;;1.48;;
37237;SDS011;23129;49.662;8.448;2023-03-29T13:42:22;2.42;;;1.55;;
37237;SDS011;23129;49.662;8.448;2023-03-29T13:45:07;3.80;;;1.40;;
37237;SDS011;23129;49.662;8.448;2023-03-29T13:47:42;1.73;;;1.40;;
37237;SDS011;23129;49.662;8.448;2023-03-29T13:50:32;4.68;;;1.30;;
37237;SDS011;23129;49.662;8.448;2023-03-29T13:53:05;2.45;;;0.88;;
37237;SDS011;23129;49.662;8.448;2023-03-29T13:55:42;2.50;;;0.95;;
37237;SDS011;23129;49.662;8.448;2023-03-29T13:58:19;4.53;;;1.33;;
37237;SDS011;23129;49.662;8.448;2023-03-29T14:01:01;7.65;;;1.13;;
37237;SDS011;23129;49.662;8.448;2023-03-29T14:03:41;7.05;;;1.35;;
37237;SDS011;23129;49.662;8.448;2023-03-29T14:06:12;2.60;;;1.30;;
37237;SDS011;23129;49.662;8.448;2023-03-29T14:08:44;3.53;;;1.45;;
37237;SDS011;23129;49.662;8.448;2023-03-29T14:11:20;3.60;;;1.10;;
37237;SDS011;23129;49.662;8.448;2023-03-29T14:13:57;0.90;;;0.90;;
37237;SDS011;23129;49.662;8.448;2023-03-29T14:16:28;2.38;;;1.33;;
37237;SDS011;23129;49.662;8.448;2023-03-29T14:19:01;9.18;;;1.33;;
37237;SDS011;23129;49.662;8.448;2023-03-29T14:21:34;3.47;;;0.90;;
37237;SDS011;23129;49.662;8.448;2023-03-29T14:24:24;0.80;;;0.80;;
37237;SDS011;23129;49.662;8.448;2023-03-29T14:27:13;3.17;;;1.00;;
37237;SDS011;23129;49.662;8.448;2023-03-29T14:30:16;1.92;;;1.13;;
37237;SDS011;23129;49.662;8.448;2023-03-29T14:33:10;5.22;;;1.40;;
37237;SDS011;23129;49.662;8.448;2023-03-29T14:36:00;1.10;;;0.95;;
37237;SDS011;23129;49.662;8.448;2023-03-29T14:38:52;2.17;;;1.30;;
37237;SDS011;23129;49.662;8.448;2023-03-29T14:41:46;2.60;;;1.13;;
37237;SDS011;23129;49.662;8.448;2023-03-29T14:44:37;2.20;;;1.15;;
37237;SDS011;23129;49.662;8.448;2023-03-29T14:47:08;7.38;;;1.55;;
37237;SDS011;23129;49.662;8.448;2023-03-29T14:49:49;2.97;;;1.25;;
37237;SDS011;23129;49.662;8.448;2023-03-29T14:52:19;1.70;;;1.42;;
37237;SDS011;23129;49.662;8.448;2023-03-29T14:54:50;3.20;;;1.17;;
37237;SDS011;23129;49.662;8.448;2023-03-29T14:57:22;1.67;;;1.20;;
37237;SDS011;23129;49.662;8.448;2023-03-29T14:59:57;7.32;;;1.52;;
37237;SDS011;23129;49.662;8.448;2023-03-29T15:02:29;3.20;;;1.30;;
37237;SDS011;23129;49.662;8.448;2023-03-29T15:05:00;3.28;;;1.35;;
37237;SDS011;23129;49.662;8.448;2023-03-29T15:07:30;4.00;;;1.20;;
37237;SDS011;23129;49.662;8.448;2023-03-29T15:10:00;3.40;;;1.20;;
37237;SDS011;23129;49.662;8.448;2023-03-29T15:12:31;1.88;;;1.33;;
37237;SDS011;23129;49.662;8.448;2023-03-29T15:15:03;2.90;;;1.10;;
37237;SDS011;23129;49.662;8.448;2023-03-29T15:17:37;4.40;;;1.30;;
37237;SDS011;23129;49.662;8.448;2023-03-29T15:20:17;5.05;;;1.45;;
37237;SDS011;23129;49.662;8.448;2023-03-29T15:22:51;3.58;;;1.35;;
37237;SDS011;23129;49.662;8.448;2023-03-29T15:25:32;1.17;;;0.98;;
37237;SDS011;23129;49.662;8.448;2023-03-29T15:28:02;2.10;;;1.13;;
37237;SDS011;23129;49.662;8.448;2023-03-29T15:30:32;3.92;;;1.15;;
37237;SDS011;23129;49.662;8.448;2023-03-29T15:35:59;7.78;;;1.55;;
37237;SDS011;23129;49.662;8.448;2023-03-29T15:38:29;7.32;;;1.30;;
37237;SDS011;23129;49.662;8.448;2023-03-29T15:41:09;1.60;;;1.15;;
37237;SDS011;23129;49.662;8.448;2023-03-29T15:43:39;6.50;;;1.40;;
37237;SDS011;23129;49.662;8.448;2023-03-29T15:46:09;3.80;;;1.63;;
37237;SDS011;23129;49.662;8.448;2023-03-29T15:48:40;4.32;;;1.00;;
37237;SDS011;23129;49.662;8.448;2023-03-29T15:51:09;4.05;;;0.82;;
37237;SDS011;23129;49.662;8.448;2023-03-29T15:53:38;2.45;;;1.05;;
37237;SDS011;23129;49.662;8.448;2023-03-29T15:56:07;3.30;;;1.08;;
37237;SDS011;23129;49.662;8.448;2023-03-29T15:58:36;8.10;;;0.93;;
37237;SDS011;23129;49.662;8.448;2023-03-29T16:01:07;6.13;;;1.40;;
37237;SDS011;23129;49.662;8.448;2023-03-29T16:03:46;3.10;;;1.20;;
37237;SDS011;23129;49.662;8.448;2023-03-29T16:06:14;5.03;;;1.30;;
37237;SDS011;23129;49.662;8.448;2023-03-29T16:08:43;1.10;;;0.85;;
37237;SDS011;23129;49.662;8.448;2023-03-29T16:11:12;1.73;;;1.00;;
37237;SDS011;23129;49.662;8.448;2023-03-29T16:13:40;3.88;;;1.27;;